Terminal Aerodrome Forecast
Issued by NWS

Home | Current Version | Previous Version | Text Only | Print | Product List | Glossary On
Versions: 1 2 3 4 5 6 7 8 9 10 11 12 13
000
FTUS44 KTSA 291200 AAA
TAFBVO
TAF AMD
KBVO 291237Z 2913/3012 18005KT P6SM VCSH SCT050 BKN110
      TEMPO 2913/2917 2SM TSRA BKN040CB
     FM292000 20007KT P6SM VCTS SCT050CB BKN250
     FM300200 VRB03KT P6SM SCT250=

USA.gov is the U.S. government's official web portal to all federal, state and local government web resources and services.